sensor_id;sensor_type;location;lat;lon;timestamp;P1;durP1;ratioP1;P2;durP2;ratioP2
53010;SDS011;42803;55.762;38.084;2024-01-16T00:01:42;18.52;;;8.10;;
53010;SDS011;42803;55.762;38.084;2024-01-16T00:04:12;21.35;;;8.90;;
53010;SDS011;42803;55.762;38.084;2024-01-16T00:06:41;19.90;;;8.73;;
53010;SDS011;42803;55.762;38.084;2024-01-16T00:09:14;17.23;;;9.45;;
53010;SDS011;42803;55.762;38.084;2024-01-16T00:11:44;18.08;;;7.72;;
53010;SDS011;42803;55.762;38.084;2024-01-16T00:14:13;16.98;;;7.68;;
53010;SDS011;42803;55.762;38.084;2024-01-16T00:16:44;19.83;;;8.63;;
53010;SDS011;42803;55.762;38.084;2024-01-16T00:19:15;17.45;;;8.13;;
53010;SDS011;42803;55.762;38.084;2024-01-16T00:21:44;17.27;;;7.97;;
53010;SDS011;42803;55.762;38.084;2024-01-16T00:24:15;19.77;;;7.82;;
53010;SDS011;42803;55.762;38.084;2024-01-16T00:26:44;15.57;;;7.43;;
53010;SDS011;42803;55.762;38.084;2024-01-16T00:29:13;19.27;;;8.93;;
53010;SDS011;42803;55.762;38.084;2024-01-16T00:31:44;18.25;;;7.57;;
53010;SDS011;42803;55.762;38.084;2024-01-16T00:34:14;14.13;;;7.53;;
53010;SDS011;42803;55.762;38.084;2024-01-16T00:36:43;17.33;;;7.85;;
53010;SDS011;42803;55.762;38.084;2024-01-16T00:39:12;13.85;;;7.68;;
53010;SDS011;42803;55.762;38.084;2024-01-16T00:41:41;14.27;;;7.88;;
53010;SDS011;42803;55.762;38.084;2024-01-16T00:44:11;16.90;;;7.20;;
53010;SDS011;42803;55.762;38.084;2024-01-16T00:46:40;15.32;;;7.63;;
53010;SDS011;42803;55.762;38.084;2024-01-16T00:49:10;14.68;;;7.30;;
53010;SDS011;42803;55.762;38.084;2024-01-16T00:51:40;14.55;;;6.90;;
53010;SDS011;42803;55.762;38.084;2024-01-16T00:54:09;16.50;;;7.85;;
53010;SDS011;42803;55.762;38.084;2024-01-16T00:56:38;17.77;;;7.32;;
53010;SDS011;42803;55.762;38.084;2024-01-16T00:59:10;13.63;;;6.95;;
53010;SDS011;42803;55.762;38.084;2024-01-16T01:01:39;20.02;;;7.10;;
53010;SDS011;42803;55.762;38.084;2024-01-16T01:04:08;15.90;;;7.72;;
53010;SDS011;42803;55.762;38.084;2024-01-16T01:06:39;13.88;;;7.07;;
53010;SDS011;42803;55.762;38.084;2024-01-16T01:09:08;14.68;;;8.30;;
53010;SDS011;42803;55.762;38.084;2024-01-16T01:11:39;18.15;;;7.68;;
53010;SDS011;42803;55.762;38.084;2024-01-16T01:14:08;14.25;;;6.70;;
53010;SDS011;42803;55.762;38.084;2024-01-16T01:16:38;18.77;;;7.22;;
53010;SDS011;42803;55.762;38.084;2024-01-16T01:19:07;14.63;;;6.05;;
53010;SDS011;42803;55.762;38.084;2024-01-16T01:21:36;14.52;;;6.43;;
53010;SDS011;42803;55.762;38.084;2024-01-16T01:24:07;14.98;;;6.85;;
53010;SDS011;42803;55.762;38.084;2024-01-16T01:26:36;15.90;;;7.55;;
53010;SDS011;42803;55.762;38.084;2024-01-16T01:29:05;12.98;;;6.72;;
53010;SDS011;42803;55.762;38.084;2024-01-16T01:31:35;14.85;;;6.90;;
53010;SDS011;42803;55.762;38.084;2024-01-16T01:34:04;13.85;;;7.63;;
53010;SDS011;42803;55.762;38.084;2024-01-16T01:36:34;14.15;;;7.03;;
53010;SDS011;42803;55.762;38.084;2024-01-16T01:39:04;15.13;;;7.63;;
53010;SDS011;42803;55.762;38.084;2024-01-16T01:41:35;15.07;;;6.95;;
53010;SDS011;42803;55.762;38.084;2024-01-16T01:44:05;20.13;;;7.50;;
53010;SDS011;42803;55.762;38.084;2024-01-16T01:46:34;13.50;;;6.72;;
53010;SDS011;42803;55.762;38.084;2024-01-16T01:49:04;13.63;;;6.45;;
53010;SDS011;42803;55.762;38.084;2024-01-16T01:51:34;14.02;;;7.60;;
53010;SDS011;42803;55.762;38.084;2024-01-16T01:54:03;17.67;;;6.97;;
53010;SDS011;42803;55.762;38.084;2024-01-16T01:56:34;14.45;;;6.93;;
53010;SDS011;42803;55.762;38.084;2024-01-16T01:59:04;15.60;;;7.25;;
53010;SDS011;42803;55.762;38.084;2024-01-16T02:01:34;14.30;;;6.85;;
53010;SDS011;42803;55.762;38.084;2024-01-16T02:04:03;14.75;;;6.47;;
53010;SDS011;42803;55.762;38.084;2024-01-16T02:06:34;14.57;;;6.15;;
53010;SDS011;42803;55.762;38.084;2024-01-16T02:09:04;13.70;;;6.75;;
53010;SDS011;42803;55.762;38.084;2024-01-16T02:11:35;13.48;;;6.03;;
53010;SDS011;42803;55.762;38.084;2024-01-16T02:14:05;14.35;;;6.40;;
53010;SDS011;42803;55.762;38.084;2024-01-16T02:16:35;11.70;;;6.07;;
53010;SDS011;42803;55.762;38.084;2024-01-16T02:19:06;13.70;;;6.40;;
53010;SDS011;42803;55.762;38.084;2024-01-16T02:21:37;14.32;;;7.10;;
53010;SDS011;42803;55.762;38.084;2024-01-16T02:24:09;14.85;;;6.93;;
53010;SDS011;42803;55.762;38.084;2024-01-16T02:26:39;16.65;;;6.38;;
53010;SDS011;42803;55.762;38.084;2024-01-16T02:29:09;10.73;;;6.18;;
53010;SDS011;42803;55.762;38.084;2024-01-16T02:31:38;12.77;;;6.68;;
53010;SDS011;42803;55.762;38.084;2024-01-16T02:34:08;14.65;;;6.18;;
53010;SDS011;42803;55.762;38.084;2024-01-16T02:36:37;12.65;;;6.28;;
53010;SDS011;42803;55.762;38.084;2024-01-16T02:39:06;11.50;;;6.30;;
53010;SDS011;42803;55.762;38.084;2024-01-16T02:41:37;16.33;;;6.78;;
53010;SDS011;42803;55.762;38.084;2024-01-16T02:44:06;14.23;;;6.35;;
53010;SDS011;42803;55.762;38.084;2024-01-16T02:46:35;12.60;;;5.43;;
53010;SDS011;42803;55.762;38.084;2024-01-16T02:49:06;12.82;;;5.85;;
53010;SDS011;42803;55.762;38.084;2024-01-16T02:51:36;15.35;;;6.40;;
53010;SDS011;42803;55.762;38.084;2024-01-16T02:54:06;11.80;;;5.97;;
53010;SDS011;42803;55.762;38.084;2024-01-16T02:56:37;12.60;;;6.32;;
53010;SDS011;42803;55.762;38.084;2024-01-16T02:59:06;13.35;;;6.80;;
53010;SDS011;42803;55.762;38.084;2024-01-16T03:01:36;13.55;;;6.75;;
53010;SDS011;42803;55.762;38.084;2024-01-16T03:04:05;10.93;;;5.95;;
53010;SDS011;42803;55.762;38.084;2024-01-16T03:06:34;12.82;;;6.43;;
53010;SDS011;42803;55.762;38.084;2024-01-16T03:09:04;14.52;;;6.13;;
53010;SDS011;42803;55.762;38.084;2024-01-16T03:11:34;10.07;;;5.78;;
53010;SDS011;42803;55.762;38.084;2024-01-16T03:14:04;12.10;;;6.47;;
53010;SDS011;42803;55.762;38.084;2024-01-16T03:16:34;11.68;;;6.38;;
53010;SDS011;42803;55.762;38.084;2024-01-16T03:19:03;14.35;;;6.10;;
53010;SDS011;42803;55.762;38.084;2024-01-16T03:21:32;11.63;;;6.35;;
53010;SDS011;42803;55.762;38.084;2024-01-16T03:24:01;11.98;;;5.85;;
53010;SDS011;42803;55.762;38.084;2024-01-16T03:26:31;12.27;;;6.03;;
53010;SDS011;42803;55.762;38.084;2024-01-16T03:29:01;10.25;;;5.72;;
53010;SDS011;42803;55.762;38.084;2024-01-16T03:31:31;12.95;;;6.30;;
53010;SDS011;42803;55.762;38.084;2024-01-16T03:34:01;15.18;;;6.53;;
53010;SDS011;42803;55.762;38.084;2024-01-16T03:36:30;11.35;;;6.28;;
53010;SDS011;42803;55.762;38.084;2024-01-16T03:38:59;15.88;;;6.85;;
53010;SDS011;42803;55.762;38.084;2024-01-16T03:41:29;14.02;;;5.93;;
53010;SDS011;42803;55.762;38.084;2024-01-16T03:43:58;15.55;;;6.88;;
53010;SDS011;42803;55.762;38.084;2024-01-16T03:46:27;12.25;;;5.85;;
53010;SDS011;42803;55.762;38.084;2024-01-16T03:49:00;14.55;;;6.65;;
53010;SDS011;42803;55.762;38.084;2024-01-16T03:51:29;11.13;;;6.93;;
53010;SDS011;42803;55.762;38.084;2024-01-16T03:53:58;13.98;;;7.05;;
53010;SDS011;42803;55.762;38.084;2024-01-16T03:56:27;12.15;;;6.50;;
53010;SDS011;42803;55.762;38.084;2024-01-16T03:58:57;11.50;;;6.93;;
53010;SDS011;42803;55.762;38.084;2024-01-16T04:01:32;16.05;;;7.22;;
53010;SDS011;42803;55.762;38.084;2024-01-16T04:04:06;14.23;;;7.03;;
53010;SDS011;42803;55.762;38.084;2024-01-16T04:06:36;16.02;;;7.05;;
53010;SDS011;42803;55.762;38.084;2024-01-16T04:09:05;14.32;;;7.05;;
53010;SDS011;42803;55.762;38.084;2024-01-16T04:11:34;13.68;;;6.55;;
53010;SDS011;42803;55.762;38.084;2024-01-16T04:14:04;12.73;;;7.07;;
53010;SDS011;42803;55.762;38.084;2024-01-16T04:16:34;13.95;;;6.65;;
53010;SDS011;42803;55.762;38.084;2024-01-16T04:19:03;14.45;;;6.93;;
53010;SDS011;42803;55.762;38.084;2024-01-16T04:21:34;16.20;;;7.00;;
53010;SDS011;42803;55.762;38.084;2024-01-16T04:24:04;15.38;;;6.72;;
53010;SDS011;42803;55.762;38.084;2024-01-16T04:26:35;14.68;;;6.97;;
53010;SDS011;42803;55.762;38.084;2024-01-16T04:29:05;19.42;;;7.35;;
53010;SDS011;42803;55.762;38.084;2024-01-16T04:31:38;15.35;;;7.13;;
53010;SDS011;42803;55.762;38.084;2024-01-16T04:34:07;18.63;;;7.55;;
53010;SDS011;42803;55.762;38.084;2024-01-16T04:36:38;15.32;;;7.78;;
53010;SDS011;42803;55.762;38.084;2024-01-16T04:39:07;18.38;;;6.88;;
53010;SDS011;42803;55.762;38.084;2024-01-16T04:41:37;13.95;;;6.45;;
53010;SDS011;42803;55.762;38.084;2024-01-16T04:44:06;15.57;;;6.32;;
53010;SDS011;42803;55.762;38.084;2024-01-16T04:46:35;15.20;;;7.75;;
53010;SDS011;42803;55.762;38.084;2024-01-16T04:49:05;15.00;;;7.32;;
53010;SDS011;42803;55.762;38.084;2024-01-16T04:51:34;17.13;;;7.55;;
53010;SDS011;42803;55.762;38.084;2024-01-16T04:54:05;16.38;;;8.30;;
53010;SDS011;42803;55.762;38.084;2024-01-16T04:56:34;14.93;;;7.60;;
53010;SDS011;42803;55.762;38.084;2024-01-16T04:59:04;15.38;;;6.95;;
53010;SDS011;42803;55.762;38.084;2024-01-16T05:01:33;17.77;;;7.88;;
53010;SDS011;42803;55.762;38.084;2024-01-16T05:04:02;16.40;;;8.07;;
53010;SDS011;42803;55.762;38.084;2024-01-16T05:06:32;15.13;;;7.10;;
53010;SDS011;42803;55.762;38.084;2024-01-16T05:09:02;15.18;;;7.60;;
53010;SDS011;42803;55.762;38.084;2024-01-16T05:11:33;13.63;;;7.53;;
53010;SDS011;42803;55.762;38.084;2024-01-16T05:14:03;16.63;;;7.60;;
53010;SDS011;42803;55.762;38.084;2024-01-16T05:16:32;16.52;;;7.45;;
53010;SDS011;42803;55.762;38.084;2024-01-16T05:19:01;19.42;;;8.18;;
53010;SDS011;42803;55.762;38.084;2024-01-16T05:21:32;17.55;;;8.00;;
53010;SDS011;42803;55.762;38.084;2024-01-16T05:24:02;24.67;;;9.32;;
53010;SDS011;42803;55.762;38.084;2024-01-16T05:26:33;13.00;;;7.03;;
53010;SDS011;42803;55.762;38.084;2024-01-16T05:29:03;16.55;;;7.50;;
53010;SDS011;42803;55.762;38.084;2024-01-16T05:31:45;18.20;;;7.35;;
53010;SDS011;42803;55.762;38.084;2024-01-16T05:34:23;21.85;;;8.50;;
53010;SDS011;42803;55.762;38.084;2024-01-16T05:36:53;19.83;;;7.80;;
53010;SDS011;42803;55.762;38.084;2024-01-16T05:39:22;16.20;;;7.43;;
53010;SDS011;42803;55.762;38.084;2024-01-16T05:41:53;18.50;;;8.15;;
53010;SDS011;42803;55.762;38.084;2024-01-16T05:44:22;15.13;;;7.65;;
53010;SDS011;42803;55.762;38.084;2024-01-16T05:46:52;18.02;;;8.00;;
53010;SDS011;42803;55.762;38.084;2024-01-16T05:49:21;14.45;;;7.55;;
53010;SDS011;42803;55.762;38.084;2024-01-16T05:51:52;16.15;;;7.10;;
53010;SDS011;42803;55.762;38.084;2024-01-16T05:54:21;18.80;;;7.15;;
53010;SDS011;42803;55.762;38.084;2024-01-16T05:56:51;18.58;;;8.02;;
53010;SDS011;42803;55.762;38.084;2024-01-16T05:59:21;19.90;;;7.97;;
53010;SDS011;42803;55.762;38.084;2024-01-16T06:01:51;19.95;;;8.82;;
53010;SDS011;42803;55.762;38.084;2024-01-16T06:04:21;18.55;;;7.40;;
53010;SDS011;42803;55.762;38.084;2024-01-16T06:06:50;23.63;;;9.10;;
53010;SDS011;42803;55.762;38.084;2024-01-16T06:09:25;17.45;;;8.68;;
53010;SDS011;42803;55.762;38.084;2024-01-16T06:12:06;17.13;;;8.18;;
53010;SDS011;42803;55.762;38.084;2024-01-16T06:14:35;22.45;;;8.98;;
53010;SDS011;42803;55.762;38.084;2024-01-16T06:17:05;20.05;;;8.77;;
53010;SDS011;42803;55.762;38.084;2024-01-16T06:19:34;16.85;;;7.57;;
53010;SDS011;42803;55.762;38.084;2024-01-16T06:22:04;16.33;;;8.73;;
53010;SDS011;42803;55.762;38.084;2024-01-16T06:24:34;18.05;;;8.52;;
53010;SDS011;42803;55.762;38.084;2024-01-16T06:27:06;20.33;;;8.43;;
53010;SDS011;42803;55.762;38.084;2024-01-16T06:29:36;17.27;;;7.88;;
53010;SDS011;42803;55.762;38.084;2024-01-16T06:32:05;19.90;;;8.30;;
53010;SDS011;42803;55.762;38.084;2024-01-16T06:34:35;15.00;;;7.45;;
53010;SDS011;42803;55.762;38.084;2024-01-16T06:37:04;17.50;;;8.68;;
53010;SDS011;42803;55.762;38.084;2024-01-16T06:39:33;16.65;;;7.55;;
53010;SDS011;42803;55.762;38.084;2024-01-16T06:42:03;16.55;;;7.57;;
53010;SDS011;42803;55.762;38.084;2024-01-16T06:44:39;16.80;;;7.95;;
53010;SDS011;42803;55.762;38.084;2024-01-16T06:47:08;16.88;;;7.80;;
53010;SDS011;42803;55.762;38.084;2024-01-16T06:49:37;15.98;;;7.82;;
53010;SDS011;42803;55.762;38.084;2024-01-16T06:52:07;22.10;;;8.80;;
53010;SDS011;42803;55.762;38.084;2024-01-16T06:54:37;18.15;;;8.75;;
53010;SDS011;42803;55.762;38.084;2024-01-16T06:57:06;19.38;;;7.90;;
53010;SDS011;42803;55.762;38.084;2024-01-16T06:59:35;16.35;;;7.22;;
53010;SDS011;42803;55.762;38.084;2024-01-16T07:02:06;17.58;;;8.77;;
53010;SDS011;42803;55.762;38.084;2024-01-16T07:04:35;14.13;;;6.88;;
53010;SDS011;42803;55.762;38.084;2024-01-16T07:07:05;17.35;;;8.48;;
53010;SDS011;42803;55.762;38.084;2024-01-16T07:09:34;19.38;;;8.68;;
53010;SDS011;42803;55.762;38.084;2024-01-16T07:12:04;19.50;;;9.30;;
53010;SDS011;42803;55.762;38.084;2024-01-16T07:14:33;20.20;;;8.98;;
53010;SDS011;42803;55.762;38.084;2024-01-16T07:17:04;20.42;;;9.13;;
53010;SDS011;42803;55.762;38.084;2024-01-16T07:19:35;20.98;;;9.63;;
53010;SDS011;42803;55.762;38.084;2024-01-16T07:22:04;19.30;;;9.57;;
53010;SDS011;42803;55.762;38.084;2024-01-16T07:24:33;20.67;;;8.93;;
53010;SDS011;42803;55.762;38.084;2024-01-16T07:27:03;20.90;;;8.30;;
53010;SDS011;42803;55.762;38.084;2024-01-16T07:29:32;19.25;;;8.63;;
53010;SDS011;42803;55.762;38.084;2024-01-16T07:32:01;19.02;;;8.07;;
53010;SDS011;42803;55.762;38.084;2024-01-16T07:34:32;17.70;;;8.55;;
53010;SDS011;42803;55.762;38.084;2024-01-16T07:37:01;16.65;;;8.15;;
53010;SDS011;42803;55.762;38.084;2024-01-16T07:39:30;17.55;;;7.20;;
53010;SDS011;42803;55.762;38.084;2024-01-16T07:41:59;20.52;;;8.07;;
53010;SDS011;42803;55.762;38.084;2024-01-16T07:44:30;17.92;;;9.20;;
53010;SDS011;42803;55.762;38.084;2024-01-16T07:46:59;17.33;;;8.15;;
53010;SDS011;42803;55.762;38.084;2024-01-16T07:49:29;20.98;;;8.98;;
53010;SDS011;42803;55.762;38.084;2024-01-16T07:52:00;15.57;;;8.68;;
53010;SDS011;42803;55.762;38.084;2024-01-16T07:54:29;16.77;;;8.70;;
53010;SDS011;42803;55.762;38.084;2024-01-16T07:56:58;23.58;;;9.27;;
53010;SDS011;42803;55.762;38.084;2024-01-16T07:59:28;24.15;;;8.68;;
53010;SDS011;42803;55.762;38.084;2024-01-16T08:01:57;16.48;;;7.70;;
53010;SDS011;42803;55.762;38.084;2024-01-16T08:04:26;16.60;;;8.25;;
53010;SDS011;42803;55.762;38.084;2024-01-16T08:06:55;17.02;;;7.82;;
53010;SDS011;42803;55.762;38.084;2024-01-16T08:09:26;19.05;;;8.98;;
53010;SDS011;42803;55.762;38.084;2024-01-16T08:11:55;22.17;;;9.35;;
53010;SDS011;42803;55.762;38.084;2024-01-16T08:14:25;16.83;;;8.63;;
53010;SDS011;42803;55.762;38.084;2024-01-16T08:16:54;19.05;;;8.52;;
53010;SDS011;42803;55.762;38.084;2024-01-16T08:19:23;18.63;;;7.88;;
53010;SDS011;42803;55.762;38.084;2024-01-16T08:21:53;21.17;;;8.93;;
53010;SDS011;42803;55.762;38.084;2024-01-16T08:24:22;22.00;;;8.85;;
53010;SDS011;42803;55.762;38.084;2024-01-16T08:26:54;19.95;;;8.20;;
53010;SDS011;42803;55.762;38.084;2024-01-16T08:29:25;19.42;;;8.75;;
53010;SDS011;42803;55.762;38.084;2024-01-16T08:31:54;18.38;;;7.97;;
53010;SDS011;42803;55.762;38.084;2024-01-16T08:34:23;18.88;;;8.75;;
53010;SDS011;42803;55.762;38.084;2024-01-16T08:36:53;21.33;;;9.13;;
53010;SDS011;42803;55.762;38.084;2024-01-16T08:39:24;24.08;;;9.35;;
53010;SDS011;42803;55.762;38.084;2024-01-16T08:41:56;17.75;;;8.23;;
53010;SDS011;42803;55.762;38.084;2024-01-16T08:44:26;21.88;;;8.70;;
53010;SDS011;42803;55.762;38.084;2024-01-16T08:46:55;21.67;;;9.82;;
53010;SDS011;42803;55.762;38.084;2024-01-16T08:49:25;22.92;;;8.25;;
53010;SDS011;42803;55.762;38.084;2024-01-16T08:51:54;17.80;;;8.30;;
53010;SDS011;42803;55.762;38.084;2024-01-16T08:54:23;20.88;;;8.75;;
53010;SDS011;42803;55.762;38.084;2024-01-16T08:56:53;21.15;;;9.02;;
53010;SDS011;42803;55.762;38.084;2024-01-16T08:59:24;22.02;;;8.55;;
53010;SDS011;42803;55.762;38.084;2024-01-16T09:01:53;21.13;;;9.00;;
53010;SDS011;42803;55.762;38.084;2024-01-16T09:04:22;20.90;;;9.15;;
53010;SDS011;42803;55.762;38.084;2024-01-16T09:06:52;21.88;;;8.70;;
53010;SDS011;42803;55.762;38.084;2024-01-16T09:09:21;21.80;;;8.50;;
53010;SDS011;42803;55.762;38.084;2024-01-16T09:11:50;18.00;;;9.10;;
53010;SDS011;42803;55.762;38.084;2024-01-16T09:14:20;20.75;;;8.75;;
53010;SDS011;42803;55.762;38.084;2024-01-16T09:16:50;20.02;;;8.80;;
53010;SDS011;42803;55.762;38.084;2024-01-16T09:19:21;17.98;;;9.15;;
53010;SDS011;42803;55.762;38.084;2024-01-16T09:21:51;22.55;;;10.13;;
53010;SDS011;42803;55.762;38.084;2024-01-16T09:24:20;29.08;;;11.98;;
53010;SDS011;42803;55.762;38.084;2024-01-16T09:26:49;20.42;;;10.15;;
53010;SDS011;42803;55.762;38.084;2024-01-16T09:29:18;18.38;;;8.82;;
53010;SDS011;42803;55.762;38.084;2024-01-16T09:31:49;18.95;;;8.80;;
53010;SDS011;42803;55.762;38.084;2024-01-16T09:34:19;20.30;;;8.60;;
53010;SDS011;42803;55.762;38.084;2024-01-16T09:36:48;20.77;;;8.75;;
53010;SDS011;42803;55.762;38.084;2024-01-16T09:39:18;20.13;;;8.77;;
53010;SDS011;42803;55.762;38.084;2024-01-16T09:41:47;16.73;;;8.18;;
53010;SDS011;42803;55.762;38.084;2024-01-16T09:44:16;18.38;;;8.30;;
53010;SDS011;42803;55.762;38.084;2024-01-16T09:46:46;18.95;;;8.25;;
53010;SDS011;42803;55.762;38.084;2024-01-16T09:49:18;18.55;;;8.25;;
53010;SDS011;42803;55.762;38.084;2024-01-16T09:51:48;16.63;;;7.85;;
53010;SDS011;42803;55.762;38.084;2024-01-16T09:54:17;18.88;;;8.13;;
53010;SDS011;42803;55.762;38.084;2024-01-16T09:56:48;18.98;;;8.55;;
53010;SDS011;42803;55.762;38.084;2024-01-16T10:01:51;16.73;;;7.75;;
53010;SDS011;42803;55.762;38.084;2024-01-16T10:04:24;17.27;;;7.38;;
53010;SDS011;42803;55.762;38.084;2024-01-16T10:06:55;19.20;;;7.97;;
53010;SDS011;42803;55.762;38.084;2024-01-16T10:09:26;17.45;;;7.57;;
53010;SDS011;42803;55.762;38.084;2024-01-16T10:11:55;17.88;;;8.00;;
53010;SDS011;42803;55.762;38.084;2024-01-16T10:14:25;15.05;;;7.88;;
53010;SDS011;42803;55.762;38.084;2024-01-16T10:16:55;16.30;;;7.55;;
53010;SDS011;42803;55.762;38.084;2024-01-16T10:19:27;16.55;;;7.53;;
53010;SDS011;42803;55.762;38.084;2024-01-16T10:22:12;19.13;;;7.70;;
53010;SDS011;42803;55.762;38.084;2024-01-16T10:25:02;15.27;;;6.57;;
53010;SDS011;42803;55.762;38.084;2024-01-16T10:27:33;16.02;;;6.28;;
53010;SDS011;42803;55.762;38.084;2024-01-16T10:30:04;17.00;;;7.13;;
53010;SDS011;42803;55.762;38.084;2024-01-16T10:32:35;17.63;;;7.75;;
53010;SDS011;42803;55.762;38.084;2024-01-16T10:35:09;17.20;;;7.75;;
53010;SDS011;42803;55.762;38.084;2024-01-16T10:37:41;14.43;;;7.45;;
53010;SDS011;42803;55.762;38.084;2024-01-16T10:40:14;18.40;;;8.10;;
53010;SDS011;42803;55.762;38.084;2024-01-16T10:42:56;18.33;;;8.10;;
53010;SDS011;42803;55.762;38.084;2024-01-16T10:45:27;15.05;;;7.50;;
53010;SDS011;42803;55.762;38.084;2024-01-16T10:48:06;15.05;;;7.40;;
53010;SDS011;42803;55.762;38.084;2024-01-16T10:50:38;16.40;;;7.05;;
53010;SDS011;42803;55.762;38.084;2024-01-16T10:53:08;14.18;;;7.50;;
53010;SDS011;42803;55.762;38.084;2024-01-16T10:55:39;17.58;;;8.70;;
53010;SDS011;42803;55.762;38.084;2024-01-16T10:58:12;18.67;;;8.75;;
53010;SDS011;42803;55.762;38.084;2024-01-16T11:00:42;15.98;;;7.47;;
53010;SDS011;42803;55.762;38.084;2024-01-16T11:03:16;15.75;;;7.32;;
53010;SDS011;42803;55.762;38.084;2024-01-16T11:05:51;18.17;;;8.75;;
53010;SDS011;42803;55.762;38.084;2024-01-16T11:08:22;15.88;;;7.53;;
53010;SDS011;42803;55.762;38.084;2024-01-16T11:10:57;19.52;;;8.57;;
53010;SDS011;42803;55.762;38.084;2024-01-16T11:13:28;14.52;;;6.85;;
53010;SDS011;42803;55.762;38.084;2024-01-16T11:15:58;15.98;;;7.22;;
53010;SDS011;42803;55.762;38.084;2024-01-16T11:18:28;15.43;;;7.57;;
53010;SDS011;42803;55.762;38.084;2024-01-16T11:21:02;15.93;;;8.02;;
53010;SDS011;42803;55.762;38.084;2024-01-16T11:23:39;18.15;;;7.95;;
53010;SDS011;42803;55.762;38.084;2024-01-16T11:26:24;19.70;;;7.68;;
53010;SDS011;42803;55.762;38.084;2024-01-16T11:28:56;18.00;;;7.78;;
53010;SDS011;42803;55.762;38.084;2024-01-16T11:31:27;13.98;;;7.00;;
53010;SDS011;42803;55.762;38.084;2024-01-16T11:33:58;19.10;;;8.07;;
53010;SDS011;42803;55.762;38.084;2024-01-16T11:36:50;16.65;;;7.65;;
53010;SDS011;42803;55.762;38.084;2024-01-16T11:39:25;13.43;;;6.70;;
53010;SDS011;42803;55.762;38.084;2024-01-16T11:41:54;15.32;;;7.85;;
53010;SDS011;42803;55.762;38.084;2024-01-16T11:44:38;17.52;;;8.35;;
53010;SDS011;42803;55.762;38.084;2024-01-16T11:47:15;15.35;;;7.28;;
53010;SDS011;42803;55.762;38.084;2024-01-16T11:49:45;15.93;;;7.13;;
53010;SDS011;42803;55.762;38.084;2024-01-16T11:52:16;16.58;;;8.00;;
53010;SDS011;42803;55.762;38.084;2024-01-16T11:55:25;17.55;;;7.78;;
53010;SDS011;42803;55.762;38.084;2024-01-16T11:58:00;16.02;;;7.70;;
53010;SDS011;42803;55.762;38.084;2024-01-16T12:00:47;16.70;;;7.43;;
53010;SDS011;42803;55.762;38.084;2024-01-16T12:03:21;14.32;;;7.07;;
53010;SDS011;42803;55.762;38.084;2024-01-16T12:06:02;16.52;;;7.93;;
53010;SDS011;42803;55.762;38.084;2024-01-16T12:08:36;19.92;;;8.00;;
53010;SDS011;42803;55.762;38.084;2024-01-16T12:11:05;17.48;;;8.32;;
53010;SDS011;42803;55.762;38.084;2024-01-16T12:13:34;19.42;;;7.82;;
53010;SDS011;42803;55.762;38.084;2024-01-16T12:16:04;16.25;;;7.53;;
53010;SDS011;42803;55.762;38.084;2024-01-16T12:18:33;14.63;;;7.88;;
53010;SDS011;42803;55.762;38.084;2024-01-16T12:21:11;22.02;;;8.43;;
53010;SDS011;42803;55.762;38.084;2024-01-16T12:23:44;17.17;;;7.47;;
53010;SDS011;42803;55.762;38.084;2024-01-16T12:26:27;16.35;;;8.02;;
53010;SDS011;42803;55.762;38.084;2024-01-16T12:28:56;17.27;;;7.80;;
53010;SDS011;42803;55.762;38.084;2024-01-16T12:31:26;15.90;;;8.18;;
53010;SDS011;42803;55.762;38.084;2024-01-16T12:34:04;18.52;;;7.60;;
53010;SDS011;42803;55.762;38.084;2024-01-16T12:36:36;14.15;;;7.82;;
53010;SDS011;42803;55.762;38.084;2024-01-16T12:39:07;16.30;;;7.82;;
53010;SDS011;42803;55.762;38.084;2024-01-16T12:41:40;17.98;;;7.65;;
53010;SDS011;42803;55.762;38.084;2024-01-16T12:44:13;20.20;;;7.97;;
53010;SDS011;42803;55.762;38.084;2024-01-16T12:46:44;19.70;;;8.25;;
53010;SDS011;42803;55.762;38.084;2024-01-16T12:49:23;25.85;;;9.45;;
53010;SDS011;42803;55.762;38.084;2024-01-16T12:54:53;17.48;;;8.80;;
53010;SDS011;42803;55.762;38.084;2024-01-16T12:57:31;17.55;;;8.55;;
53010;SDS011;42803;55.762;38.084;2024-01-16T13:00:00;16.58;;;7.45;;
53010;SDS011;42803;55.762;38.084;2024-01-16T13:02:32;22.58;;;9.95;;
53010;SDS011;42803;55.762;38.084;2024-01-16T13:05:03;22.13;;;8.70;;
53010;SDS011;42803;55.762;38.084;2024-01-16T13:07:35;14.70;;;7.28;;
53010;SDS011;42803;55.762;38.084;2024-01-16T13:10:09;20.08;;;9.27;;
53010;SDS011;42803;55.762;38.084;2024-01-16T13:12:44;18.83;;;8.13;;
53010;SDS011;42803;55.762;38.084;2024-01-16T13:15:13;18.65;;;8.52;;
53010;SDS011;42803;55.762;38.084;2024-01-16T13:17:45;20.48;;;8.48;;
53010;SDS011;42803;55.762;38.084;2024-01-16T13:20:16;17.25;;;9.00;;
53010;SDS011;42803;55.762;38.084;2024-01-16T13:22:46;18.27;;;8.35;;
53010;SDS011;42803;55.762;38.084;2024-01-16T13:25:19;19.38;;;8.40;;
53010;SDS011;42803;55.762;38.084;2024-01-16T13:27:48;21.75;;;9.43;;
53010;SDS011;42803;55.762;38.084;2024-01-16T13:30:17;17.23;;;8.20;;
53010;SDS011;42803;55.762;38.084;2024-01-16T13:32:50;16.40;;;8.90;;
53010;SDS011;42803;55.762;38.084;2024-01-16T13:35:19;18.83;;;8.25;;
53010;SDS011;42803;55.762;38.084;2024-01-16T13:37:49;26.08;;;9.55;;
53010;SDS011;42803;55.762;38.084;2024-01-16T13:40:20;22.40;;;9.15;;
53010;SDS011;42803;55.762;38.084;2024-01-16T13:42:52;18.70;;;8.63;;
53010;SDS011;42803;55.762;38.084;2024-01-16T13:45:21;16.83;;;8.82;;
53010;SDS011;42803;55.762;38.084;2024-01-16T13:47:50;19.70;;;8.73;;
53010;SDS011;42803;55.762;38.084;2024-01-16T13:50:19;19.27;;;9.02;;
53010;SDS011;42803;55.762;38.084;2024-01-16T13:52:49;18.55;;;8.02;;
53010;SDS011;42803;55.762;38.084;2024-01-16T13:55:20;17.95;;;8.38;;
53010;SDS011;42803;55.762;38.084;2024-01-16T13:57:49;18.17;;;8.23;;
53010;SDS011;42803;55.762;38.084;2024-01-16T14:00:19;16.63;;;8.25;;
53010;SDS011;42803;55.762;38.084;2024-01-16T14:02:49;17.67;;;8.60;;
53010;SDS011;42803;55.762;38.084;2024-01-16T14:05:19;20.08;;;9.23;;
53010;SDS011;42803;55.762;38.084;2024-01-16T14:07:49;16.52;;;8.65;;
53010;SDS011;42803;55.762;38.084;2024-01-16T14:10:21;18.88;;;8.95;;
53010;SDS011;42803;55.762;38.084;2024-01-16T14:12:52;16.88;;;8.07;;
53010;SDS011;42803;55.762;38.084;2024-01-16T14:15:21;23.75;;;9.43;;
53010;SDS011;42803;55.762;38.084;2024-01-16T14:17:52;20.65;;;9.15;;
53010;SDS011;42803;55.762;38.084;2024-01-16T14:20:23;19.92;;;9.35;;
53010;SDS011;42803;55.762;38.084;2024-01-16T14:22:56;18.95;;;9.18;;
53010;SDS011;42803;55.762;38.084;2024-01-16T14:25:27;19.92;;;9.77;;
53010;SDS011;42803;55.762;38.084;2024-01-16T14:27:57;23.67;;;9.68;;
53010;SDS011;42803;55.762;38.084;2024-01-16T14:30:27;22.90;;;10.65;;
53010;SDS011;42803;55.762;38.084;2024-01-16T14:32:57;26.48;;;10.05;;
53010;SDS011;42803;55.762;38.084;2024-01-16T14:35:27;20.85;;;9.23;;
53010;SDS011;42803;55.762;38.084;2024-01-16T14:37:56;20.55;;;9.38;;
53010;SDS011;42803;55.762;38.084;2024-01-16T14:40:25;28.52;;;11.15;;
53010;SDS011;42803;55.762;38.084;2024-01-16T14:42:57;24.00;;;9.20;;
53010;SDS011;42803;55.762;38.084;2024-01-16T14:45:27;26.77;;;9.70;;
53010;SDS011;42803;55.762;38.084;2024-01-16T14:47:56;23.88;;;9.68;;